Groton New London Airport
KGON : now visible

Airfield :











YOU CAN JOIN US ON...

 
LOGIN :

Register | Disclaimer

   EN    FR    IT 

 









Legend :    VFR   Marginal VFR   IFR   Intensive IFR   Very Intensive IFR
Visi :
Ceiling :
>= 8 km
>= 3000ft
5 to 8 km
1000 to 3000 ft
1500m to 5 km
500 to 1000 ft
800 to 1500m
200 to 500 ft
< 800m
< 200 ft
Symbols :   Thunderstorms  Fog  Heavy snow  Heavy precipitations  Wind > 20 kt






- Airport Elevation : 9 ft
- IATA code : GON


KGON - Groton New London

CURRENT METAR :
  • 282156Z 20004KT 10SM OVC030 17/16 A3017 RMK AO2 SLP214 T01670156

EXPIRED METARs :
  • 282056Z 20005KT 10SM FEW026 OVC041 17/16 A3018 RMK AO2 SLP218 T01720156 56008
  • 281956Z 18006KT 10SM FEW022 OVC038 18/16 A3018 RMK AO2 SLP220 T01780156

TAF KGON
Valid from the 28 at 21:00 until the 29 at 18:00 UTC


282107Z 2821/2918 18007KT 6SM BR VCSH SCT004 OVC045
TEMPO 2822/2824 BKN004
FM290000 17009KT 2SM BR OVC004
FM290400 18008KT 1SM BR OVC004
TEMPO 2909/2912 1/2SM -DZ FG OVC007
FM291500 18010KT P6SM OVC007
FM291700 20012KT P6SM BKN015
KZBW FIR / North America



MET'MAP, your aeronautical weather chart ! - Copyright ORBIFLY December 2007 - Disclaimer

ORBIFLY MET'MAP TEAM :

Programming & Development : Alexandra Zaïnal
Concept & original design : Baudouin d'Aumeries
Assistance for programming : Marc-Olivier Méhu
Technical & hardware support : Manuel Goepfert

Contact : metmap@orbifly.com




SOURCES & CREDITS :

   NOAA       Earth
Advisory